createdAt,value
2022-07-31T00:00:28.956Z,16.00
2022-07-31T00:02:57.491Z,16.00
2022-07-31T00:05:26.758Z,15.90
2022-07-31T00:07:55.297Z,15.90
2022-07-31T00:10:24.013Z,15.90
2022-07-31T00:12:53.856Z,15.90
2022-07-31T00:15:22.573Z,15.90
2022-07-31T00:17:50.929Z,15.80
2022-07-31T00:20:20.696Z,15.80
2022-07-31T00:22:50.565Z,15.80
2022-07-31T00:25:20.044Z,15.80
2022-07-31T00:27:48.258Z,15.80
2022-07-31T00:30:17.894Z,15.80
2022-07-31T00:32:46.493Z,15.80
2022-07-31T00:35:17.494Z,15.80
2022-07-31T00:37:45.923Z,15.70
2022-07-31T00:40:18.032Z,15.70
2022-07-31T00:42:46.275Z,15.70
2022-07-31T00:45:15.519Z,15.70
2022-07-31T00:47:45.213Z,15.70
2022-07-31T00:50:14.092Z,15.60
2022-07-31T00:52:42.410Z,15.60
2022-07-31T00:55:11.214Z,15.60
2022-07-31T00:57:39.335Z,15.60
2022-07-31T01:00:09.144Z,15.50
2022-07-31T01:02:38.407Z,15.50
2022-07-31T01:05:18.842Z,15.50
2022-07-31T01:07:48.832Z,15.60
2022-07-31T01:10:37.220Z,15.60
2022-07-31T01:13:11.775Z,15.60
2022-07-31T01:15:41.770Z,15.50
2022-07-31T01:18:12.304Z,15.60
2022-07-31T01:20:49.730Z,15.50
2022-07-31T01:23:54.891Z,15.40
2022-07-31T01:26:39.012Z,15.40
2022-07-31T01:29:19.957Z,15.40
2022-07-31T01:31:57.837Z,15.40
2022-07-31T01:34:37.982Z,15.40
2022-07-31T01:37:14.934Z,15.40
2022-07-31T01:39:51.510Z,15.40
2022-07-31T01:42:24.024Z,15.40
2022-07-31T01:45:00.574Z,15.40
2022-07-31T01:47:32.717Z,15.40
2022-07-31T01:50:04.774Z,15.50
2022-07-31T01:52:35.351Z,15.40
2022-07-31T01:55:06.042Z,15.40
2022-07-31T01:57:36.049Z,15.30
2022-07-31T02:00:33.556Z,15.40
2022-07-31T02:03:01.408Z,15.30
2022-07-31T02:05:39.571Z,15.20
2022-07-31T02:08:10.326Z,15.20
2022-07-31T02:10:40.663Z,15.20
2022-07-31T02:13:09.062Z,15.20
2022-07-31T02:15:39.698Z,15.30
2022-07-31T02:18:10.782Z,15.20
2022-07-31T02:20:41.603Z,15.20
2022-07-31T02:23:10.332Z,15.10
2022-07-31T02:25:40.111Z,15.20
2022-07-31T02:28:13.315Z,15.10
2022-07-31T02:30:46.173Z,15.10
2022-07-31T02:33:21.236Z,15.20
2022-07-31T02:35:52.362Z,15.20
2022-07-31T02:38:23.982Z,15.20
2022-07-31T02:40:55.764Z,15.10
2022-07-31T02:43:25.593Z,15.10
2022-07-31T02:45:55.914Z,15.10
2022-07-31T02:48:25.798Z,15.10
2022-07-31T02:50:54.626Z,15.10
2022-07-31T02:53:23.320Z,15.10
2022-07-31T02:55:52.743Z,15.00
2022-07-31T02:58:20.959Z,15.00
2022-07-31T03:00:49.269Z,15.00
2022-07-31T03:03:18.811Z,15.00
2022-07-31T03:05:46.945Z,15.00
2022-07-31T03:08:15.113Z,15.00
2022-07-31T03:10:43.293Z,15.00
2022-07-31T03:13:14.035Z,14.90
2022-07-31T03:15:50.296Z,15.00
2022-07-31T03:18:22.066Z,15.00
2022-07-31T03:20:52.684Z,15.00
2022-07-31T03:23:23.867Z,14.90
2022-07-31T03:25:53.716Z,14.90
2022-07-31T03:28:23.100Z,14.90
2022-07-31T03:30:55.100Z,14.90
2022-07-31T03:33:25.815Z,14.90
2022-07-31T03:35:55.599Z,14.90
2022-07-31T03:38:41.860Z,15.00
2022-07-31T03:41:11.945Z,15.00
2022-07-31T03:43:44.150Z,14.90
2022-07-31T03:46:19.604Z,15.00
2022-07-31T03:48:52.337Z,14.90
2022-07-31T03:51:21.489Z,14.90
2022-07-31T03:53:51.609Z,14.90
2022-07-31T03:56:21.077Z,14.90
2022-07-31T03:58:52.430Z,14.90
2022-07-31T04:01:22.268Z,14.90
2022-07-31T04:04:00.211Z,15.00
2022-07-31T04:06:28.432Z,15.00
2022-07-31T04:08:56.560Z,15.00
2022-07-31T04:11:24.644Z,15.10
2022-07-31T04:13:52.714Z,15.10
2022-07-31T04:16:20.799Z,15.10
2022-07-31T04:18:51.130Z,15.20
2022-07-31T04:21:21.244Z,15.20
2022-07-31T04:23:50.350Z,15.20
2022-07-31T04:26:19.836Z,15.20
2022-07-31T04:28:54.126Z,15.30
2022-07-31T04:31:22.207Z,15.30
2022-07-31T04:33:55.947Z,15.40
2022-07-31T04:36:30.342Z,15.40
2022-07-31T04:38:59.769Z,15.40
2022-07-31T04:41:28.722Z,15.50
2022-07-31T04:43:58.286Z,15.60
2022-07-31T04:46:26.622Z,15.70
2022-07-31T04:48:54.806Z,15.70
2022-07-31T04:51:25.499Z,15.80
2022-07-31T04:53:54.057Z,15.90
2022-07-31T04:56:35.912Z,16.00
2022-07-31T04:59:08.251Z,16.10
2022-07-31T05:01:37.403Z,16.20
2022-07-31T05:04:07.243Z,16.30
2022-07-31T05:06:39.444Z,16.80
2022-07-31T05:09:13.633Z,17.70
2022-07-31T05:11:47.084Z,18.70
2022-07-31T05:14:18.732Z,19.70
2022-07-31T05:16:47.257Z,20.30
2022-07-31T05:19:15.438Z,20.90
2022-07-31T05:21:53.036Z,21.10
2022-07-31T05:24:32.681Z,21.30
2022-07-31T05:27:02.943Z,21.50
2022-07-31T05:29:31.616Z,21.20
2022-07-31T05:32:01.099Z,20.90
2022-07-31T05:34:30.765Z,20.70
2022-07-31T05:37:02.188Z,20.30
2022-07-31T05:39:30.693Z,20.10
2022-07-31T05:41:59.231Z,19.90
2022-07-31T05:44:27.407Z,19.70
2022-07-31T05:49:24.049Z,19.60
2022-07-31T05:51:54.344Z,19.50
2022-07-31T05:54:24.055Z,19.50
2022-07-31T05:56:52.154Z,19.60
2022-07-31T05:59:20.278Z,19.60
2022-07-31T06:01:48.425Z,19.70
2022-07-31T06:04:16.553Z,19.80
2022-07-31T06:06:44.704Z,19.90
2022-07-31T06:09:13.315Z,20.10
2022-07-31T06:11:42.834Z,20.30
2022-07-31T06:14:11.018Z,20.60
2022-07-31T06:16:39.132Z,20.80
2022-07-31T06:19:07.229Z,21.10
2022-07-31T06:21:35.326Z,21.40
2022-07-31T06:24:03.531Z,21.60
2022-07-31T06:26:31.747Z,21.50
2022-07-31T06:29:01.781Z,21.60
2022-07-31T06:31:29.983Z,21.90
2022-07-31T06:33:58.104Z,22.00
2022-07-31T06:36:26.155Z,22.00
2022-07-31T06:38:54.324Z,22.00
2022-07-31T06:41:36.327Z,22.10
2022-07-31T06:44:05.803Z,22.10
2022-07-31T06:46:33.966Z,22.10
2022-07-31T06:49:04.505Z,22.10
2022-07-31T06:51:36.849Z,22.20
2022-07-31T06:54:08.231Z,22.40
2022-07-31T06:56:38.437Z,22.30
2022-07-31T06:59:08.869Z,22.20
2022-07-31T07:01:37.013Z,22.20
2022-07-31T07:04:05.342Z,22.10
2022-07-31T07:06:33.519Z,22.00
2022-07-31T07:09:01.645Z,22.00
2022-07-31T07:11:29.713Z,22.00
2022-07-31T07:13:57.878Z,22.00
2022-07-31T07:16:27.280Z,22.00
2022-07-31T07:18:56.056Z,22.00
2022-07-31T07:21:24.308Z,22.00
2022-07-31T07:23:52.356Z,22.00
2022-07-31T07:26:20.849Z,22.00
2022-07-31T07:28:48.920Z,22.10
2022-07-31T07:31:16.943Z,22.10
2022-07-31T07:33:47.730Z,22.10
2022-07-31T07:36:23.341Z,22.20
2022-07-31T07:38:55.055Z,22.10
2022-07-31T07:41:24.881Z,22.00
2022-07-31T07:43:53.490Z,21.90
2022-07-31T07:46:23.164Z,21.80
2022-07-31T07:48:53.274Z,21.80
2022-07-31T07:51:22.397Z,22.00
2022-07-31T07:53:50.570Z,22.00
2022-07-31T07:56:19.251Z,21.90
2022-07-31T07:58:49.068Z,22.00
2022-07-31T08:01:18.004Z,22.10
2022-07-31T08:03:50.030Z,22.30
2022-07-31T08:06:22.532Z,22.50
2022-07-31T08:08:51.282Z,22.70
2022-07-31T08:11:22.541Z,22.80
2022-07-31T08:13:51.436Z,22.90
2022-07-31T08:16:20.710Z,22.80
2022-07-31T08:18:49.640Z,22.90
2022-07-31T08:21:17.785Z,23.00
2022-07-31T08:23:47.370Z,23.10
2022-07-31T08:26:15.565Z,23.00
2022-07-31T08:28:50.401Z,23.00
2022-07-31T08:31:20.434Z,23.10
2022-07-31T08:33:48.595Z,23.10
2022-07-31T08:36:16.777Z,23.20
2022-07-31T08:38:47.187Z,23.10
2022-07-31T08:41:15.753Z,23.10
2022-07-31T08:44:03.026Z,23.00
2022-07-31T08:46:34.028Z,22.80
2022-07-31T08:49:04.432Z,22.80
2022-07-31T08:51:51.364Z,22.70
2022-07-31T08:54:26.153Z,22.60
2022-07-31T08:56:55.110Z,22.70
2022-07-31T08:59:23.290Z,22.60
2022-07-31T09:01:52.988Z,22.70
2022-07-31T09:04:21.155Z,22.80
2022-07-31T09:06:49.283Z,22.90
2022-07-31T09:09:18.637Z,22.80
2022-07-31T09:11:53.822Z,22.90
2022-07-31T09:14:32.172Z,23.00
2022-07-31T09:17:00.410Z,22.90
2022-07-31T09:19:51.982Z,23.00
2022-07-31T09:22:24.587Z,23.00
2022-07-31T09:24:53.508Z,23.00
2022-07-31T09:27:29.688Z,23.10
2022-07-31T09:29:58.550Z,23.20
2022-07-31T09:32:26.629Z,23.30
2022-07-31T09:34:54.680Z,23.40
2022-07-31T09:37:27.322Z,23.40
2022-07-31T09:39:57.540Z,23.50
2022-07-31T09:42:38.805Z,23.50
2022-07-31T09:45:22.998Z,23.60
2022-07-31T09:48:05.775Z,23.60
2022-07-31T09:50:34.629Z,23.70
2022-07-31T09:53:03.297Z,23.80
2022-07-31T09:55:31.459Z,23.90
2022-07-31T09:58:02.992Z,23.90
2022-07-31T10:00:31.558Z,23.90
2022-07-31T10:03:01.862Z,24.00
2022-07-31T10:05:31.458Z,24.00
2022-07-31T10:08:01.698Z,24.10
2022-07-31T10:10:31.811Z,24.20
2022-07-31T10:13:09.030Z,24.30
2022-07-31T10:15:41.568Z,24.40
2022-07-31T10:18:11.006Z,24.40
2022-07-31T10:20:43.032Z,24.30
2022-07-31T10:23:16.909Z,24.40
2022-07-31T10:25:55.577Z,24.40
2022-07-31T10:28:26.594Z,24.40
2022-07-31T10:30:54.821Z,24.40
2022-07-31T10:33:43.130Z,24.50
2022-07-31T10:36:20.837Z,24.50
2022-07-31T10:39:00.067Z,24.40
2022-07-31T10:41:47.964Z,24.40
2022-07-31T10:44:28.829Z,24.40
2022-07-31T10:46:57.813Z,24.40
2022-07-31T10:49:41.021Z,24.40
2022-07-31T10:52:09.546Z,24.40
2022-07-31T10:54:42.758Z,24.40
2022-07-31T10:57:22.569Z,24.50
2022-07-31T10:59:52.099Z,24.50
2022-07-31T11:02:31.300Z,24.40
2022-07-31T11:05:14.309Z,24.40
2022-07-31T11:07:44.297Z,24.40
2022-07-31T11:10:16.330Z,24.50
2022-07-31T11:12:45.466Z,24.60
2022-07-31T11:15:26.144Z,24.70
2022-07-31T11:18:21.354Z,24.70
2022-07-31T11:20:46.654Z,24.70
2022-07-31T11:23:17.452Z,24.60
2022-07-31T11:25:47.509Z,24.60
2022-07-31T11:28:21.445Z,24.70
2022-07-31T11:30:54.077Z,24.70
2022-07-31T11:33:41.828Z,24.90
2022-07-31T11:36:13.371Z,25.00
2022-07-31T11:38:46.079Z,25.30
2022-07-31T11:41:16.315Z,25.50
2022-07-31T11:43:46.086Z,25.50
2022-07-31T11:46:20.695Z,25.50
2022-07-31T11:48:48.785Z,25.60
2022-07-31T11:51:21.641Z,25.60
2022-07-31T11:53:57.418Z,25.60
2022-07-31T11:56:28.459Z,25.70
2022-07-31T11:58:59.524Z,25.70
2022-07-31T12:01:30.437Z,25.70
2022-07-31T12:04:09.067Z,25.90
2022-07-31T12:06:38.235Z,26.00
2022-07-31T12:09:06.600Z,26.20
2022-07-31T12:11:34.882Z,26.10
2022-07-31T12:14:03.076Z,26.00
2022-07-31T12:16:41.930Z,26.10
2022-07-31T12:19:10.167Z,26.20
2022-07-31T12:21:40.688Z,26.10
2022-07-31T12:24:13.084Z,26.20
2022-07-31T12:26:49.967Z,26.20
2022-07-31T12:29:18.283Z,26.30
2022-07-31T12:31:50.263Z,26.40
2022-07-31T12:34:29.469Z,26.40
2022-07-31T12:37:02.663Z,26.50
2022-07-31T12:39:53.827Z,26.50
2022-07-31T12:42:31.234Z,26.40
2022-07-31T12:45:18.526Z,26.20
2022-07-31T12:47:54.350Z,26.20
2022-07-31T12:50:23.476Z,26.10
2022-07-31T12:52:51.659Z,26.10
2022-07-31T12:55:20.164Z,26.10
2022-07-31T12:57:51.218Z,26.20
2022-07-31T13:00:22.656Z,26.40
2022-07-31T13:02:53.671Z,26.40
2022-07-31T13:05:22.191Z,26.50
2022-07-31T13:07:50.961Z,26.60
2022-07-31T13:10:23.801Z,26.60
2022-07-31T13:12:53.877Z,26.70
2022-07-31T13:15:29.605Z,26.70
2022-07-31T13:18:01.860Z,26.70
2022-07-31T13:20:30.974Z,26.80
2022-07-31T13:23:00.134Z,26.80
2022-07-31T13:25:31.278Z,26.80
2022-07-31T13:27:59.908Z,26.70
2022-07-31T13:30:28.725Z,26.60
2022-07-31T13:32:58.037Z,26.50
2022-07-31T13:35:28.371Z,26.70
2022-07-31T13:37:57.346Z,26.70
2022-07-31T13:40:39.939Z,26.90
2022-07-31T13:43:08.110Z,26.90
2022-07-31T13:45:36.281Z,26.70
2022-07-31T13:48:09.291Z,26.50
2022-07-31T13:50:39.498Z,26.30
2022-07-31T13:53:07.771Z,26.30
2022-07-31T13:55:35.904Z,26.40
2022-07-31T13:58:04.102Z,26.50
2022-07-31T14:00:32.872Z,26.70
2022-07-31T14:03:01.055Z,26.80
2022-07-31T14:05:37.298Z,26.90
2022-07-31T14:08:32.946Z,27.00
2022-07-31T14:10:57.222Z,27.00
2022-07-31T14:13:25.842Z,27.00
2022-07-31T14:15:53.861Z,27.00
2022-07-31T14:18:23.133Z,26.70
2022-07-31T14:20:52.854Z,26.70
2022-07-31T14:23:21.559Z,26.60
2022-07-31T14:26:03.395Z,26.40
2022-07-31T14:28:31.476Z,26.20
2022-07-31T14:30:59.518Z,26.00
2022-07-31T14:33:27.522Z,26.10
2022-07-31T14:35:56.998Z,26.10
2022-07-31T14:38:26.979Z,26.00
2022-07-31T14:40:56.017Z,26.10
2022-07-31T14:43:24.154Z,26.10
2022-07-31T14:45:52.478Z,26.10
2022-07-31T14:48:21.867Z,26.10
2022-07-31T14:50:49.946Z,26.00
2022-07-31T14:53:19.375Z,26.10
2022-07-31T14:55:47.683Z,26.20
2022-07-31T14:58:15.818Z,26.20
2022-07-31T15:00:44.120Z,26.40
2022-07-31T15:03:12.143Z,26.50
2022-07-31T15:06:41.220Z,26.70
2022-07-31T15:08:31.299Z,26.80
2022-07-31T15:10:59.299Z,27.00
2022-07-31T15:13:27.375Z,27.30
2022-07-31T15:15:55.552Z,27.50
2022-07-31T15:18:25.887Z,27.60
2022-07-31T15:20:54.255Z,27.70
2022-07-31T15:23:22.496Z,27.80
2022-07-31T15:25:51.989Z,27.70
2022-07-31T15:28:20.130Z,27.60
2022-07-31T15:30:48.143Z,27.50
2022-07-31T15:33:16.175Z,27.40
2022-07-31T15:35:44.141Z,27.20
2022-07-31T15:38:12.149Z,27.10
2022-07-31T15:40:40.293Z,27.10
2022-07-31T15:43:09.735Z,27.10
2022-07-31T15:45:37.856Z,27.10
2022-07-31T15:48:10.147Z,27.10
2022-07-31T15:50:39.031Z,27.00
2022-07-31T15:53:07.165Z,27.10
2022-07-31T15:55:35.370Z,27.10
2022-07-31T15:58:03.427Z,27.10
2022-07-31T16:00:32.850Z,27.10
2022-07-31T16:03:01.769Z,27.10
2022-07-31T16:05:36.592Z,27.20
2022-07-31T16:08:32.748Z,27.20
2022-07-31T16:10:57.085Z,27.30
2022-07-31T16:13:25.809Z,27.40
2022-07-31T16:15:55.603Z,27.40
2022-07-31T16:18:23.684Z,27.30
2022-07-31T16:20:51.808Z,27.20
2022-07-31T16:23:19.886Z,27.10
2022-07-31T16:25:48.176Z,27.10
2022-07-31T16:28:16.280Z,27.20
2022-07-31T16:30:45.579Z,27.10
2022-07-31T16:33:15.493Z,27.10
2022-07-31T16:35:43.799Z,27.00
2022-07-31T16:38:11.917Z,26.90
2022-07-31T16:40:39.965Z,26.70
2022-07-31T16:43:49.272Z,26.70
2022-07-31T16:45:57.542Z,26.50
2022-07-31T16:48:26.947Z,26.40
2022-07-31T16:50:55.334Z,26.20
2022-07-31T16:54:10.048Z,26.00
2022-07-31T16:56:12.698Z,25.90
2022-07-31T16:58:41.046Z,25.80
2022-07-31T17:01:53.163Z,25.80
2022-07-31T17:04:03.154Z,25.70
2022-07-31T17:06:36.978Z,25.70
2022-07-31T17:09:16.835Z,25.60
2022-07-31T17:11:48.774Z,25.50
2022-07-31T17:14:18.831Z,25.50
2022-07-31T17:16:49.359Z,25.40
2022-07-31T17:19:36.191Z,25.40
2022-07-31T17:22:11.257Z,25.40
2022-07-31T17:24:40.916Z,25.40
2022-07-31T17:27:10.773Z,25.40
2022-07-31T17:29:39.623Z,25.40
2022-07-31T17:32:07.723Z,25.40
2022-07-31T17:34:37.481Z,25.30
2022-07-31T17:37:06.932Z,25.30
2022-07-31T17:39:35.926Z,25.30
2022-07-31T17:42:04.204Z,25.40
2022-07-31T17:44:32.261Z,25.30
2022-07-31T17:47:00.315Z,25.30
2022-07-31T17:49:33.540Z,25.30
2022-07-31T17:52:03.128Z,25.30
2022-07-31T17:54:32.556Z,25.20
2022-07-31T17:57:01.319Z,25.20
2022-07-31T17:59:30.173Z,25.10
2022-07-31T18:02:00.771Z,25.00
2022-07-31T18:04:29.717Z,24.90
2022-07-31T18:06:58.506Z,24.90
2022-07-31T18:09:29.688Z,24.80
2022-07-31T18:11:58.641Z,24.80
2022-07-31T18:14:27.177Z,24.60
2022-07-31T18:16:55.475Z,24.60
2022-07-31T18:19:24.033Z,24.50
2022-07-31T18:21:53.555Z,24.40
2022-07-31T18:24:22.342Z,24.30
2022-07-31T18:26:54.752Z,24.20
2022-07-31T18:29:23.094Z,24.10
2022-07-31T18:31:51.415Z,24.10
2022-07-31T18:34:19.535Z,24.00
2022-07-31T18:36:54.225Z,23.90
2022-07-31T18:39:23.585Z,23.90
2022-07-31T18:41:53.434Z,23.80
2022-07-31T18:44:21.965Z,23.80
2022-07-31T18:46:50.167Z,23.70
2022-07-31T18:51:00.668Z,23.60
2022-07-31T18:52:07.351Z,23.60
2022-07-31T18:54:35.811Z,23.50
2022-07-31T18:57:06.572Z,23.50
2022-07-31T18:59:34.973Z,23.40
2022-07-31T19:02:04.732Z,23.40
2022-07-31T19:04:34.095Z,23.40
2022-07-31T19:07:02.144Z,23.30
2022-07-31T19:09:30.428Z,23.30
2022-07-31T19:11:58.982Z,23.30
2022-07-31T19:14:28.505Z,23.20
2022-07-31T19:16:59.800Z,23.10
2022-07-31T19:19:54.248Z,23.10
2022-07-31T19:22:17.200Z,23.00
2022-07-31T19:24:45.346Z,23.00
2022-07-31T19:27:13.507Z,23.00
2022-07-31T19:29:42.975Z,22.90
2022-07-31T19:32:11.476Z,22.90
2022-07-31T19:34:39.635Z,22.90
2022-07-31T19:37:10.296Z,22.90
2022-07-31T19:39:38.322Z,22.80
2022-07-31T19:42:11.767Z,22.80
2022-07-31T19:44:41.698Z,22.80
2022-07-31T19:47:10.024Z,22.80
2022-07-31T19:49:38.625Z,22.80
2022-07-31T19:52:09.385Z,22.90
2022-07-31T19:54:37.535Z,22.80
2022-07-31T19:57:06.147Z,22.90
2022-07-31T19:59:34.339Z,22.90
2022-07-31T20:02:04.136Z,22.90
2022-07-31T20:04:32.291Z,22.90
2022-07-31T20:07:00.288Z,22.90
2022-07-31T20:09:30.120Z,22.90
2022-07-31T20:11:58.169Z,22.90
2022-07-31T20:14:26.375Z,22.90
2022-07-31T20:16:54.353Z,23.10
2022-07-31T20:19:23.717Z,23.10
2022-07-31T20:21:51.667Z,23.10
2022-07-31T20:24:19.751Z,23.00
2022-07-31T20:26:48.452Z,22.90
2022-07-31T20:29:16.543Z,22.70
2022-07-31T20:31:44.502Z,22.60
2022-07-31T20:34:12.564Z,22.40
2022-07-31T20:36:42.045Z,22.30
2022-07-31T20:39:10.210Z,22.30
2022-07-31T20:41:38.519Z,22.20
2022-07-31T20:44:06.976Z,22.10
2022-07-31T20:46:35.104Z,22.10
2022-07-31T20:49:03.215Z,22.00
2022-07-31T20:51:31.295Z,22.00
2022-07-31T20:54:00.635Z,21.90
2022-07-31T20:56:28.677Z,21.90
2022-07-31T20:58:56.689Z,22.00
2022-07-31T21:01:26.069Z,22.00
2022-07-31T21:03:55.014Z,22.00
2022-07-31T21:06:24.219Z,22.00
2022-07-31T21:08:52.210Z,22.00
2022-07-31T21:11:21.541Z,22.00
2022-07-31T21:13:59.576Z,21.90
2022-07-31T21:16:27.719Z,21.90
2022-07-31T21:18:56.155Z,21.90
2022-07-31T21:21:24.883Z,21.90
2022-07-31T21:23:52.991Z,22.00
2022-07-31T21:26:27.822Z,21.90
2022-07-31T21:28:56.754Z,21.80
2022-07-31T21:31:25.441Z,21.80
2022-07-31T21:33:54.075Z,21.70
2022-07-31T21:36:22.758Z,21.70
2022-07-31T21:38:51.679Z,21.60
2022-07-31T21:41:20.281Z,21.60
2022-07-31T21:43:59.178Z,21.50
2022-07-31T21:46:30.317Z,21.50
2022-07-31T21:48:59.666Z,21.50
2022-07-31T21:51:28.636Z,21.40
2022-07-31T21:53:56.655Z,21.40
2022-07-31T21:56:24.813Z,21.30
2022-07-31T21:58:54.173Z,21.30
2022-07-31T22:01:22.573Z,21.20
2022-07-31T22:03:50.758Z,21.20
2022-07-31T22:06:36.712Z,21.20
2022-07-31T22:09:05.057Z,21.20
2022-07-31T22:11:33.730Z,21.10
2022-07-31T22:14:03.147Z,21.10
2022-07-31T22:16:31.185Z,21.10
2022-07-31T22:19:00.932Z,21.10
2022-07-31T22:21:29.554Z,21.20
2022-07-31T22:23:58.383Z,21.20
2022-07-31T22:26:27.218Z,21.10
2022-07-31T22:28:56.413Z,21.10
2022-07-31T22:31:26.503Z,21.10
2022-07-31T22:33:54.999Z,21.00
2022-07-31T22:36:26.149Z,20.90
2022-07-31T22:38:54.481Z,20.90
2022-07-31T22:41:22.852Z,20.80
2022-07-31T22:44:12.090Z,20.80
2022-07-31T22:46:41.088Z,20.70
2022-07-31T22:49:10.625Z,20.60
2022-07-31T22:51:40.173Z,20.60
2022-07-31T22:54:10.718Z,20.60
2022-07-31T22:56:38.938Z,20.60
2022-07-31T22:59:08.801Z,20.60
2022-07-31T23:01:36.890Z,20.60
2022-07-31T23:04:06.715Z,20.50
2022-07-31T23:06:34.833Z,20.50
2022-07-31T23:09:03.216Z,20.50
2022-07-31T23:11:31.614Z,20.50
2022-07-31T23:13:59.866Z,20.40
2022-07-31T23:16:28.445Z,20.40
2022-07-31T23:18:56.607Z,20.40
2022-07-31T23:21:26.164Z,20.40
2022-07-31T23:23:54.714Z,20.40
2022-07-31T23:26:25.696Z,20.40
2022-07-31T23:28:55.765Z,20.30
2022-07-31T23:31:24.980Z,20.30
2022-07-31T23:33:53.746Z,20.20
2022-07-31T23:36:22.233Z,20.20
2022-07-31T23:38:51.799Z,20.20
2022-07-31T23:41:40.934Z,20.20
2022-07-31T23:44:10.531Z,20.10
2022-07-31T23:46:40.416Z,20.10
2022-07-31T23:49:09.750Z,20.10
2022-07-31T23:51:38.037Z,20.10
2022-07-31T23:54:08.266Z,20.10
2022-07-31T23:56:36.410Z,20.10
2022-07-31T23:59:04.673Z,20.10
